sensor_id;sensor_type;location;lat;lon;timestamp;P1;durP1;ratioP1;P2;durP2;ratioP2
37997;SDS011;24079;51.824;4.682;2023-04-03T00:01:37;7.38;;;2.50;;
37997;SDS011;24079;51.824;4.682;2023-04-03T00:04:06;4.97;;;2.20;;
37997;SDS011;24079;51.824;4.682;2023-04-03T00:06:32;4.00;;;2.17;;
37997;SDS011;24079;51.824;4.682;2023-04-03T00:08:58;4.70;;;2.03;;
37997;SDS011;24079;51.824;4.682;2023-04-03T00:11:24;6.18;;;2.00;;
37997;SDS011;24079;51.824;4.682;2023-04-03T00:13:50;4.40;;;2.17;;
37997;SDS011;24079;51.824;4.682;2023-04-03T00:16:15;3.78;;;2.05;;
37997;SDS011;24079;51.824;4.682;2023-04-03T00:18:41;5.35;;;1.70;;
37997;SDS011;24079;51.824;4.682;2023-04-03T00:21:07;2.72;;;1.90;;
37997;SDS011;24079;51.824;4.682;2023-04-03T00:23:34;4.78;;;2.17;;
37997;SDS011;24079;51.824;4.682;2023-04-03T00:26:00;4.35;;;1.95;;
37997;SDS011;24079;51.824;4.682;2023-04-03T00:28:26;4.82;;;2.20;;
37997;SDS011;24079;51.824;4.682;2023-04-03T00:30:52;5.45;;;1.95;;
37997;SDS011;24079;51.824;4.682;2023-04-03T00:33:18;3.95;;;1.85;;
37997;SDS011;24079;51.824;4.682;2023-04-03T00:35:46;2.88;;;1.90;;
37997;SDS011;24079;51.824;4.682;2023-04-03T00:38:13;12.05;;;2.33;;
37997;SDS011;24079;51.824;4.682;2023-04-03T00:40:42;9.75;;;2.03;;
37997;SDS011;24079;51.824;4.682;2023-04-03T00:43:13;5.55;;;2.30;;
37997;SDS011;24079;51.824;4.682;2023-04-03T00:45:50;4.28;;;1.92;;
37997;SDS011;24079;51.824;4.682;2023-04-03T00:48:18;4.63;;;2.08;;
37997;SDS011;24079;51.824;4.682;2023-04-03T00:50:57;6.32;;;1.90;;
37997;SDS011;24079;51.824;4.682;2023-04-03T00:53:25;4.30;;;2.08;;
37997;SDS011;24079;51.824;4.682;2023-04-03T00:55:57;4.78;;;1.80;;
37997;SDS011;24079;51.824;4.682;2023-04-03T00:58:30;8.10;;;2.30;;
37997;SDS011;24079;51.824;4.682;2023-04-03T01:01:02;5.68;;;2.53;;
37997;SDS011;24079;51.824;4.682;2023-04-03T01:03:31;6.82;;;2.00;;
37997;SDS011;24079;51.824;4.682;2023-04-03T01:05:57;6.30;;;2.03;;
37997;SDS011;24079;51.824;4.682;2023-04-03T01:08:23;5.68;;;2.00;;
37997;SDS011;24079;51.824;4.682;2023-04-03T01:10:49;6.88;;;2.03;;
37997;SDS011;24079;51.824;4.682;2023-04-03T01:13:23;3.97;;;1.83;;
37997;SDS011;24079;51.824;4.682;2023-04-03T01:15:51;6.25;;;2.15;;
37997;SDS011;24079;51.824;4.682;2023-04-03T01:18:17;7.35;;;2.47;;
37997;SDS011;24079;51.824;4.682;2023-04-03T01:26:18;6.03;;;2.35;;
37997;SDS011;24079;51.824;4.682;2023-04-03T01:28:44;2.65;;;1.80;;
37997;SDS011;24079;51.824;4.682;2023-04-03T01:33:53;3.13;;;1.70;;
37997;SDS011;24079;51.824;4.682;2023-04-03T01:36:24;6.25;;;2.17;;
37997;SDS011;24079;51.824;4.682;2023-04-03T01:41:18;3.90;;;1.98;;
37997;SDS011;24079;51.824;4.682;2023-04-03T01:43:46;3.60;;;1.80;;
37997;SDS011;24079;51.824;4.682;2023-04-03T01:46:12;3.63;;;1.95;;
37997;SDS011;24079;51.824;4.682;2023-04-03T01:48:39;6.53;;;2.03;;
37997;SDS011;24079;51.824;4.682;2023-04-03T01:51:05;5.00;;;1.70;;
37997;SDS011;24079;51.824;4.682;2023-04-03T01:53:31;3.20;;;2.00;;
37997;SDS011;24079;51.824;4.682;2023-04-03T01:55:57;4.93;;;2.50;;
37997;SDS011;24079;51.824;4.682;2023-04-03T01:58:23;3.03;;;1.98;;
37997;SDS011;24079;51.824;4.682;2023-04-03T02:00:50;6.53;;;2.08;;
37997;SDS011;24079;51.824;4.682;2023-04-03T02:03:17;6.05;;;1.80;;
37997;SDS011;24079;51.824;4.682;2023-04-03T02:05:43;8.70;;;1.83;;
37997;SDS011;24079;51.824;4.682;2023-04-03T02:08:09;4.40;;;2.08;;
37997;SDS011;24079;51.824;4.682;2023-04-03T02:10:35;7.18;;;2.65;;
37997;SDS011;24079;51.824;4.682;2023-04-03T02:13:01;4.72;;;1.90;;
37997;SDS011;24079;51.824;4.682;2023-04-03T02:15:27;6.63;;;2.13;;
37997;SDS011;24079;51.824;4.682;2023-04-03T02:17:53;3.97;;;1.90;;
37997;SDS011;24079;51.824;4.682;2023-04-03T02:20:20;7.22;;;1.98;;
37997;SDS011;24079;51.824;4.682;2023-04-03T02:22:46;5.70;;;1.85;;
37997;SDS011;24079;51.824;4.682;2023-04-03T02:25:12;3.97;;;2.03;;
37997;SDS011;24079;51.824;4.682;2023-04-03T02:27:38;4.97;;;1.95;;
37997;SDS011;24079;51.824;4.682;2023-04-03T02:30:04;5.03;;;2.10;;
37997;SDS011;24079;51.824;4.682;2023-04-03T02:32:31;4.20;;;2.03;;
37997;SDS011;24079;51.824;4.682;2023-04-03T02:34:57;2.95;;;2.08;;
37997;SDS011;24079;51.824;4.682;2023-04-03T02:37:23;4.18;;;1.98;;
37997;SDS011;24079;51.824;4.682;2023-04-03T02:39:49;7.28;;;2.17;;
37997;SDS011;24079;51.824;4.682;2023-04-03T02:42:16;6.95;;;2.38;;
37997;SDS011;24079;51.824;4.682;2023-04-03T02:44:42;6.40;;;2.13;;
37997;SDS011;24079;51.824;4.682;2023-04-03T02:47:07;5.82;;;2.35;;
37997;SDS011;24079;51.824;4.682;2023-04-03T02:49:33;5.35;;;2.50;;
37997;SDS011;24079;51.824;4.682;2023-04-03T02:51:59;5.75;;;2.00;;
37997;SDS011;24079;51.824;4.682;2023-04-03T02:54:24;5.30;;;2.60;;
37997;SDS011;24079;51.824;4.682;2023-04-03T02:56:53;5.38;;;2.17;;
37997;SDS011;24079;51.824;4.682;2023-04-03T02:59:19;4.05;;;2.10;;
37997;SDS011;24079;51.824;4.682;2023-04-03T03:01:45;5.32;;;2.13;;
37997;SDS011;24079;51.824;4.682;2023-04-03T03:04:11;5.82;;;2.75;;
37997;SDS011;24079;51.824;4.682;2023-04-03T03:06:36;5.05;;;2.30;;
37997;SDS011;24079;51.824;4.682;2023-04-03T03:09:02;7.45;;;2.65;;
37997;SDS011;24079;51.824;4.682;2023-04-03T03:11:28;4.95;;;2.33;;
37997;SDS011;24079;51.824;4.682;2023-04-03T03:13:54;6.18;;;2.58;;
37997;SDS011;24079;51.824;4.682;2023-04-03T03:16:20;5.10;;;2.20;;
37997;SDS011;24079;51.824;4.682;2023-04-03T03:18:46;5.65;;;2.45;;
37997;SDS011;24079;51.824;4.682;2023-04-03T03:21:13;3.35;;;2.13;;
37997;SDS011;24079;51.824;4.682;2023-04-03T03:23:39;5.90;;;2.50;;
37997;SDS011;24079;51.824;4.682;2023-04-03T03:26:07;4.70;;;2.53;;
37997;SDS011;24079;51.824;4.682;2023-04-03T03:28:35;6.43;;;2.38;;
37997;SDS011;24079;51.824;4.682;2023-04-03T03:31:01;7.40;;;3.38;;
37997;SDS011;24079;51.824;4.682;2023-04-03T03:33:28;7.32;;;2.17;;
37997;SDS011;24079;51.824;4.682;2023-04-03T03:35:54;6.93;;;2.42;;
37997;SDS011;24079;51.824;4.682;2023-04-03T03:38:20;8.95;;;2.50;;
37997;SDS011;24079;51.824;4.682;2023-04-03T03:40:47;5.53;;;2.50;;
37997;SDS011;24079;51.824;4.682;2023-04-03T03:43:14;5.50;;;2.75;;
37997;SDS011;24079;51.824;4.682;2023-04-03T03:45:41;6.80;;;2.50;;
37997;SDS011;24079;51.824;4.682;2023-04-03T03:48:07;5.85;;;2.60;;
37997;SDS011;24079;51.824;4.682;2023-04-03T03:50:33;4.13;;;2.38;;
37997;SDS011;24079;51.824;4.682;2023-04-03T03:52:59;4.90;;;2.22;;
37997;SDS011;24079;51.824;4.682;2023-04-03T03:55:25;8.13;;;2.58;;
37997;SDS011;24079;51.824;4.682;2023-04-03T03:57:51;4.22;;;2.67;;
37997;SDS011;24079;51.824;4.682;2023-04-03T04:00:17;6.13;;;2.53;;
37997;SDS011;24079;51.824;4.682;2023-04-03T04:09:15;5.25;;;2.60;;
37997;SDS011;24079;51.824;4.682;2023-04-03T04:11:40;8.82;;;2.60;;
37997;SDS011;24079;51.824;4.682;2023-04-03T04:14:06;5.00;;;2.55;;
37997;SDS011;24079;51.824;4.682;2023-04-03T04:16:32;7.07;;;2.95;;
37997;SDS011;24079;51.824;4.682;2023-04-03T04:18:58;8.00;;;2.78;;
37997;SDS011;24079;51.824;4.682;2023-04-03T04:21:23;5.53;;;3.13;;
37997;SDS011;24079;51.824;4.682;2023-04-03T04:23:49;7.22;;;2.75;;
37997;SDS011;24079;51.824;4.682;2023-04-03T04:26:15;3.92;;;2.40;;
37997;SDS011;24079;51.824;4.682;2023-04-03T04:28:41;6.68;;;3.15;;
37997;SDS011;24079;51.824;4.682;2023-04-03T04:31:07;6.25;;;2.63;;
37997;SDS011;24079;51.824;4.682;2023-04-03T04:33:33;4.35;;;2.60;;
37997;SDS011;24079;51.824;4.682;2023-04-03T04:35:58;6.95;;;2.70;;
37997;SDS011;24079;51.824;4.682;2023-04-03T04:38:24;6.63;;;2.63;;
37997;SDS011;24079;51.824;4.682;2023-04-03T04:40:50;8.15;;;3.17;;
37997;SDS011;24079;51.824;4.682;2023-04-03T04:43:15;5.63;;;3.00;;
37997;SDS011;24079;51.824;4.682;2023-04-03T04:45:41;7.38;;;2.97;;
37997;SDS011;24079;51.824;4.682;2023-04-03T04:48:07;6.07;;;3.05;;
37997;SDS011;24079;51.824;4.682;2023-04-03T04:50:33;10.32;;;3.47;;
37997;SDS011;24079;51.824;4.682;2023-04-03T04:52:58;8.32;;;3.65;;
37997;SDS011;24079;51.824;4.682;2023-04-03T04:55:24;5.90;;;2.78;;
37997;SDS011;24079;51.824;4.682;2023-04-03T04:57:50;8.30;;;3.80;;
37997;SDS011;24079;51.824;4.682;2023-04-03T05:00:17;8.05;;;3.38;;
37997;SDS011;24079;51.824;4.682;2023-04-03T05:02:43;8.07;;;2.80;;
37997;SDS011;24079;51.824;4.682;2023-04-03T05:05:09;5.82;;;2.90;;
37997;SDS011;24079;51.824;4.682;2023-04-03T05:07:34;9.07;;;3.30;;
37997;SDS011;24079;51.824;4.682;2023-04-03T05:10:00;6.10;;;2.83;;
37997;SDS011;24079;51.824;4.682;2023-04-03T05:12:27;8.15;;;3.42;;
37997;SDS011;24079;51.824;4.682;2023-04-03T05:14:53;8.70;;;3.70;;
37997;SDS011;24079;51.824;4.682;2023-04-03T05:17:19;7.45;;;3.08;;
37997;SDS011;24079;51.824;4.682;2023-04-03T05:19:44;10.52;;;3.78;;
37997;SDS011;24079;51.824;4.682;2023-04-03T05:22:10;8.00;;;3.50;;
37997;SDS011;24079;51.824;4.682;2023-04-03T05:24:36;6.97;;;2.97;;
37997;SDS011;24079;51.824;4.682;2023-04-03T05:27:02;6.22;;;3.03;;
37997;SDS011;24079;51.824;4.682;2023-04-03T05:29:28;8.15;;;3.55;;
37997;SDS011;24079;51.824;4.682;2023-04-03T05:31:54;8.38;;;3.33;;
37997;SDS011;24079;51.824;4.682;2023-04-03T05:34:20;8.50;;;2.70;;
37997;SDS011;24079;51.824;4.682;2023-04-03T05:36:46;7.95;;;3.10;;
37997;SDS011;24079;51.824;4.682;2023-04-03T05:39:11;10.40;;;3.35;;
37997;SDS011;24079;51.824;4.682;2023-04-03T05:41:37;9.13;;;3.58;;
37997;SDS011;24079;51.824;4.682;2023-04-03T05:44:03;6.68;;;3.40;;
37997;SDS011;24079;51.824;4.682;2023-04-03T05:46:28;6.60;;;3.50;;
37997;SDS011;24079;51.824;4.682;2023-04-03T05:48:54;8.23;;;3.10;;
37997;SDS011;24079;51.824;4.682;2023-04-03T05:51:24;8.32;;;3.33;;
37997;SDS011;24079;51.824;4.682;2023-04-03T05:54:28;10.23;;;3.30;;
37997;SDS011;24079;51.824;4.682;2023-04-03T05:56:50;12.68;;;3.65;;
37997;SDS011;24079;51.824;4.682;2023-04-03T05:59:17;10.52;;;3.10;;
37997;SDS011;24079;51.824;4.682;2023-04-03T06:01:43;6.28;;;3.08;;
37997;SDS011;24079;51.824;4.682;2023-04-03T06:04:10;7.22;;;2.95;;
37997;SDS011;24079;51.824;4.682;2023-04-03T06:07:09;5.00;;;2.80;;
37997;SDS011;24079;51.824;4.682;2023-04-03T06:09:28;8.95;;;3.33;;
37997;SDS011;24079;51.824;4.682;2023-04-03T06:11:55;8.18;;;3.58;;
37997;SDS011;24079;51.824;4.682;2023-04-03T06:14:24;10.50;;;3.60;;
37997;SDS011;24079;51.824;4.682;2023-04-03T06:16:51;9.15;;;3.50;;
37997;SDS011;24079;51.824;4.682;2023-04-03T06:19:18;8.48;;;3.83;;
37997;SDS011;24079;51.824;4.682;2023-04-03T06:21:44;9.43;;;3.50;;
37997;SDS011;24079;51.824;4.682;2023-04-03T06:24:12;8.82;;;3.20;;
37997;SDS011;24079;51.824;4.682;2023-04-03T06:26:41;5.55;;;3.03;;
37997;SDS011;24079;51.824;4.682;2023-04-03T06:29:07;10.02;;;3.65;;
37997;SDS011;24079;51.824;4.682;2023-04-03T06:31:34;10.10;;;3.85;;
37997;SDS011;24079;51.824;4.682;2023-04-03T06:34:01;10.18;;;3.63;;
37997;SDS011;24079;51.824;4.682;2023-04-03T06:36:27;11.27;;;4.05;;
37997;SDS011;24079;51.824;4.682;2023-04-03T06:38:52;6.85;;;3.00;;
37997;SDS011;24079;51.824;4.682;2023-04-03T06:41:18;7.50;;;3.00;;
37997;SDS011;24079;51.824;4.682;2023-04-03T06:43:44;7.60;;;2.78;;
37997;SDS011;24079;51.824;4.682;2023-04-03T06:46:18;5.75;;;3.00;;
37997;SDS011;24079;51.824;4.682;2023-04-03T06:48:45;7.07;;;3.03;;
37997;SDS011;24079;51.824;4.682;2023-04-03T06:51:22;7.68;;;2.88;;
37997;SDS011;24079;51.824;4.682;2023-04-03T06:53:53;7.10;;;2.55;;
37997;SDS011;24079;51.824;4.682;2023-04-03T06:56:21;10.80;;;3.15;;
37997;SDS011;24079;51.824;4.682;2023-04-03T06:58:48;7.32;;;2.67;;
37997;SDS011;24079;51.824;4.682;2023-04-03T07:01:17;9.63;;;3.38;;
37997;SDS011;24079;51.824;4.682;2023-04-03T07:03:46;8.57;;;2.70;;
37997;SDS011;24079;51.824;4.682;2023-04-03T07:06:14;7.03;;;2.90;;
37997;SDS011;24079;51.824;4.682;2023-04-03T07:08:41;6.68;;;2.30;;
37997;SDS011;24079;51.824;4.682;2023-04-03T07:11:08;8.80;;;2.55;;
37997;SDS011;24079;51.824;4.682;2023-04-03T07:13:35;6.72;;;2.53;;
37997;SDS011;24079;51.824;4.682;2023-04-03T07:16:01;8.82;;;2.75;;
37997;SDS011;24079;51.824;4.682;2023-04-03T07:18:29;5.32;;;2.25;;
37997;SDS011;24079;51.824;4.682;2023-04-03T07:20:55;6.47;;;2.67;;
37997;SDS011;24079;51.824;4.682;2023-04-03T07:23:21;11.05;;;2.40;;
37997;SDS011;24079;51.824;4.682;2023-04-03T07:25:48;4.78;;;2.20;;
37997;SDS011;24079;51.824;4.682;2023-04-03T07:28:15;11.30;;;2.90;;
37997;SDS011;24079;51.824;4.682;2023-04-03T07:30:45;7.75;;;2.40;;
37997;SDS011;24079;51.824;4.682;2023-04-03T07:33:14;9.52;;;2.75;;
37997;SDS011;24079;51.824;4.682;2023-04-03T07:35:42;7.47;;;2.38;;
37997;SDS011;24079;51.824;4.682;2023-04-03T07:38:09;5.13;;;2.55;;
37997;SDS011;24079;51.824;4.682;2023-04-03T07:40:35;7.55;;;2.20;;
37997;SDS011;24079;51.824;4.682;2023-04-03T07:43:02;6.07;;;2.28;;
37997;SDS011;24079;51.824;4.682;2023-04-03T07:45:29;6.72;;;2.80;;
37997;SDS011;24079;51.824;4.682;2023-04-03T07:47:55;8.23;;;3.00;;
37997;SDS011;24079;51.824;4.682;2023-04-03T07:50:21;6.55;;;2.15;;
37997;SDS011;24079;51.824;4.682;2023-04-03T07:52:47;4.60;;;2.13;;
37997;SDS011;24079;51.824;4.682;2023-04-03T07:55:13;7.85;;;2.80;;
37997;SDS011;24079;51.824;4.682;2023-04-03T07:57:40;5.45;;;2.00;;
37997;SDS011;24079;51.824;4.682;2023-04-03T08:00:06;8.18;;;2.10;;
37997;SDS011;24079;51.824;4.682;2023-04-03T08:02:34;6.18;;;2.25;;
37997;SDS011;24079;51.824;4.682;2023-04-03T08:05:00;5.95;;;2.00;;
37997;SDS011;24079;51.824;4.682;2023-04-03T08:07:26;13.15;;;2.45;;
37997;SDS011;24079;51.824;4.682;2023-04-03T08:09:52;6.57;;;2.42;;
37997;SDS011;24079;51.824;4.682;2023-04-03T08:12:18;7.85;;;2.47;;
37997;SDS011;24079;51.824;4.682;2023-04-03T08:14:45;11.57;;;2.47;;
37997;SDS011;24079;51.824;4.682;2023-04-03T08:17:11;8.27;;;2.10;;
37997;SDS011;24079;51.824;4.682;2023-04-03T08:19:37;11.57;;;2.67;;
37997;SDS011;24079;51.824;4.682;2023-04-03T08:22:04;9.15;;;2.60;;
37997;SDS011;24079;51.824;4.682;2023-04-03T08:24:31;7.72;;;2.33;;
37997;SDS011;24079;51.824;4.682;2023-04-03T08:26:59;7.53;;;2.00;;
37997;SDS011;24079;51.824;4.682;2023-04-03T08:29:26;7.53;;;2.25;;
37997;SDS011;24079;51.824;4.682;2023-04-03T08:31:51;7.32;;;2.28;;
37997;SDS011;24079;51.824;4.682;2023-04-03T08:34:17;9.73;;;2.67;;
37997;SDS011;24079;51.824;4.682;2023-04-03T08:44:36;9.50;;;2.38;;
37997;SDS011;24079;51.824;4.682;2023-04-03T08:50:01;7.50;;;2.38;;
37997;SDS011;24079;51.824;4.682;2023-04-03T08:55:40;11.63;;;2.42;;
37997;SDS011;24079;51.824;4.682;2023-04-03T08:58:29;4.03;;;1.83;;
37997;SDS011;24079;51.824;4.682;2023-04-03T09:01:16;10.10;;;2.53;;
37997;SDS011;24079;51.824;4.682;2023-04-03T09:03:58;9.45;;;2.20;;
37997;SDS011;24079;51.824;4.682;2023-04-03T09:06:27;6.18;;;2.45;;
37997;SDS011;24079;51.824;4.682;2023-04-03T09:11:49;8.38;;;2.35;;
37997;SDS011;24079;51.824;4.682;2023-04-03T09:20:09;4.82;;;2.28;;
37997;SDS011;24079;51.824;4.682;2023-04-03T09:22:46;5.80;;;2.17;;
37997;SDS011;24079;51.824;4.682;2023-04-03T09:25:14;7.07;;;2.42;;
37997;SDS011;24079;51.824;4.682;2023-04-03T09:27:45;9.18;;;2.63;;
37997;SDS011;24079;51.824;4.682;2023-04-03T09:30:15;6.32;;;1.75;;
37997;SDS011;24079;51.824;4.682;2023-04-03T09:32:44;3.75;;;2.08;;
37997;SDS011;24079;51.824;4.682;2023-04-03T09:38:02;5.25;;;1.98;;
37997;SDS011;24079;51.824;4.682;2023-04-03T09:40:42;5.55;;;1.65;;
37997;SDS011;24079;51.824;4.682;2023-04-03T09:45:56;9.40;;;1.77;;
37997;SDS011;24079;51.824;4.682;2023-04-03T09:51:38;2.55;;;1.05;;
37997;SDS011;24079;51.824;4.682;2023-04-03T09:56:50;3.97;;;1.30;;
37997;SDS011;24079;51.824;4.682;2023-04-03T09:59:18;4.38;;;1.00;;
37997;SDS011;24079;51.824;4.682;2023-04-03T10:02:02;3.63;;;1.30;;
37997;SDS011;24079;51.824;4.682;2023-04-03T10:04:39;5.40;;;0.98;;
37997;SDS011;24079;51.824;4.682;2023-04-03T10:10:20;3.55;;;1.10;;
37997;SDS011;24079;51.824;4.682;2023-04-03T10:12:47;4.50;;;0.98;;
37997;SDS011;24079;51.824;4.682;2023-04-03T10:15:14;2.67;;;0.90;;
37997;SDS011;24079;51.824;4.682;2023-04-03T10:17:49;4.07;;;1.17;;
37997;SDS011;24079;51.824;4.682;2023-04-03T10:29:04;1.92;;;0.90;;
37997;SDS011;24079;51.824;4.682;2023-04-03T10:34:35;1.63;;;0.90;;
37997;SDS011;24079;51.824;4.682;2023-04-03T10:37:20;3.88;;;0.90;;
37997;SDS011;24079;51.824;4.682;2023-04-03T10:42:50;1.58;;;0.80;;
37997;SDS011;24079;51.824;4.682;2023-04-03T10:45:26;2.88;;;0.70;;
37997;SDS011;24079;51.824;4.682;2023-04-03T10:50:39;2.88;;;1.35;;
37997;SDS011;24079;51.824;4.682;2023-04-03T10:53:24;1.58;;;0.85;;
37997;SDS011;24079;51.824;4.682;2023-04-03T10:56:01;2.85;;;0.65;;
37997;SDS011;24079;51.824;4.682;2023-04-03T10:58:36;1.42;;;0.73;;
37997;SDS011;24079;51.824;4.682;2023-04-03T11:01:09;1.95;;;0.95;;
37997;SDS011;24079;51.824;4.682;2023-04-03T11:03:42;3.08;;;0.90;;
37997;SDS011;24079;51.824;4.682;2023-04-03T11:06:13;1.92;;;0.68;;
37997;SDS011;24079;51.824;4.682;2023-04-03T11:08:44;3.08;;;1.00;;
37997;SDS011;24079;51.824;4.682;2023-04-03T11:11:18;3.72;;;0.70;;
37997;SDS011;24079;51.824;4.682;2023-04-03T11:14:11;2.42;;;0.88;;
37997;SDS011;24079;51.824;4.682;2023-04-03T11:16:48;3.53;;;0.68;;
37997;SDS011;24079;51.824;4.682;2023-04-03T11:19:45;1.40;;;1.00;;
37997;SDS011;24079;51.824;4.682;2023-04-03T11:24:57;3.88;;;1.05;;
37997;SDS011;24079;51.824;4.682;2023-04-03T11:27:24;4.78;;;0.90;;
37997;SDS011;24079;51.824;4.682;2023-04-03T11:29:52;2.40;;;0.90;;
37997;SDS011;24079;51.824;4.682;2023-04-03T11:32:43;5.00;;;1.10;;
37997;SDS011;24079;51.824;4.682;2023-04-03T11:35:14;3.33;;;0.90;;
37997;SDS011;24079;51.824;4.682;2023-04-03T11:37:43;2.53;;;0.70;;
37997;SDS011;24079;51.824;4.682;2023-04-03T11:42:46;1.17;;;0.70;;
37997;SDS011;24079;51.824;4.682;2023-04-03T11:50:59;1.60;;;0.75;;
37997;SDS011;24079;51.824;4.682;2023-04-03T11:53:34;2.55;;;0.70;;
37997;SDS011;24079;51.824;4.682;2023-04-03T12:01:45;2.95;;;0.93;;
37997;SDS011;24079;51.824;4.682;2023-04-03T12:04:13;3.22;;;0.70;;
37997;SDS011;24079;51.824;4.682;2023-04-03T12:09:24;5.90;;;0.98;;
37997;SDS011;24079;51.824;4.682;2023-04-03T12:11:52;3.67;;;0.70;;
37997;SDS011;24079;51.824;4.682;2023-04-03T12:14:20;3.00;;;0.63;;
37997;SDS011;24079;51.824;4.682;2023-04-03T12:16:49;2.03;;;0.80;;
37997;SDS011;24079;51.824;4.682;2023-04-03T12:26:46;5.18;;;0.90;;
37997;SDS011;24079;51.824;4.682;2023-04-03T12:29:32;3.85;;;1.00;;
37997;SDS011;24079;51.824;4.682;2023-04-03T12:46:15;3.70;;;1.10;;
37997;SDS011;24079;51.824;4.682;2023-04-03T12:51:14;2.38;;;0.85;;
37997;SDS011;24079;51.824;4.682;2023-04-03T12:53:43;6.20;;;0.90;;
37997;SDS011;24079;51.824;4.682;2023-04-03T12:56:26;4.57;;;1.15;;
37997;SDS011;24079;51.824;4.682;2023-04-03T12:59:13;2.15;;;1.00;;
37997;SDS011;24079;51.824;4.682;2023-04-03T13:01:56;2.40;;;0.88;;
37997;SDS011;24079;51.824;4.682;2023-04-03T13:04:26;2.88;;;0.95;;
37997;SDS011;24079;51.824;4.682;2023-04-03T13:06:53;3.25;;;1.10;;
37997;SDS011;24079;51.824;4.682;2023-04-03T13:09:24;3.92;;;1.20;;
37997;SDS011;24079;51.824;4.682;2023-04-03T13:14:24;5.05;;;1.55;;
37997;SDS011;24079;51.824;4.682;2023-04-03T13:19:20;5.20;;;1.27;;
37997;SDS011;24079;51.824;4.682;2023-04-03T13:21:49;5.45;;;1.50;;
37997;SDS011;24079;51.824;4.682;2023-04-03T13:24:19;4.07;;;1.20;;
37997;SDS011;24079;51.824;4.682;2023-04-03T13:26:44;4.82;;;1.08;;
37997;SDS011;24079;51.824;4.682;2023-04-03T13:29:31;5.13;;;1.13;;
37997;SDS011;24079;51.824;4.682;2023-04-03T13:31:59;1.95;;;1.08;;
37997;SDS011;24079;51.824;4.682;2023-04-03T13:34:27;3.50;;;1.42;;
37997;SDS011;24079;51.824;4.682;2023-04-03T13:37:00;5.35;;;1.75;;
37997;SDS011;24079;51.824;4.682;2023-04-03T13:39:31;3.33;;;1.90;;
37997;SDS011;24079;51.824;4.682;2023-04-03T13:42:00;5.50;;;1.60;;
37997;SDS011;24079;51.824;4.682;2023-04-03T13:44:46;2.35;;;1.27;;
37997;SDS011;24079;51.824;4.682;2023-04-03T13:55:20;3.00;;;1.42;;
37997;SDS011;24079;51.824;4.682;2023-04-03T13:57:53;4.22;;;1.33;;
37997;SDS011;24079;51.824;4.682;2023-04-03T14:00:30;3.72;;;1.30;;
37997;SDS011;24079;51.824;4.682;2023-04-03T14:03:19;4.28;;;1.30;;
37997;SDS011;24079;51.824;4.682;2023-04-03T14:05:46;4.03;;;1.50;;
37997;SDS011;24079;51.824;4.682;2023-04-03T14:08:12;4.65;;;1.50;;
37997;SDS011;24079;51.824;4.682;2023-04-03T14:10:38;4.72;;;1.38;;
37997;SDS011;24079;51.824;4.682;2023-04-03T14:13:05;4.75;;;1.20;;
37997;SDS011;24079;51.824;4.682;2023-04-03T14:15:31;5.85;;;1.17;;
37997;SDS011;24079;51.824;4.682;2023-04-03T14:17:58;3.20;;;1.30;;
37997;SDS011;24079;51.824;4.682;2023-04-03T14:20:25;4.60;;;1.48;;
37997;SDS011;24079;51.824;4.682;2023-04-03T14:22:52;5.07;;;1.45;;
37997;SDS011;24079;51.824;4.682;2023-04-03T14:25:19;3.35;;;1.17;;
37997;SDS011;24079;51.824;4.682;2023-04-03T14:27:48;2.20;;;1.17;;
37997;SDS011;24079;51.824;4.682;2023-04-03T14:30:21;6.40;;;1.52;;
37997;SDS011;24079;51.824;4.682;2023-04-03T14:32:52;2.97;;;1.30;;
37997;SDS011;24079;51.824;4.682;2023-04-03T14:35:19;3.13;;;1.30;;
37997;SDS011;24079;51.824;4.682;2023-04-03T14:37:45;6.93;;;1.45;;
37997;SDS011;24079;51.824;4.682;2023-04-03T14:40:13;3.85;;;1.40;;
37997;SDS011;24079;51.824;4.682;2023-04-03T14:42:40;2.58;;;1.50;;
37997;SDS011;24079;51.824;4.682;2023-04-03T14:45:09;3.70;;;1.73;;
37997;SDS011;24079;51.824;4.682;2023-04-03T14:47:39;5.20;;;1.55;;
37997;SDS011;24079;51.824;4.682;2023-04-03T14:50:11;3.60;;;1.40;;
37997;SDS011;24079;51.824;4.682;2023-04-03T14:52:40;4.78;;;1.73;;
37997;SDS011;24079;51.824;4.682;2023-04-03T14:55:06;3.42;;;1.42;;
37997;SDS011;24079;51.824;4.682;2023-04-03T14:57:33;4.90;;;1.70;;
37997;SDS011;24079;51.824;4.682;2023-04-03T15:00:00;4.78;;;1.55;;
37997;SDS011;24079;51.824;4.682;2023-04-03T15:02:35;5.35;;;1.88;;
37997;SDS011;24079;51.824;4.682;2023-04-03T15:05:04;7.55;;;2.10;;
37997;SDS011;24079;51.824;4.682;2023-04-03T15:07:33;4.47;;;1.88;;
37997;SDS011;24079;51.824;4.682;2023-04-03T15:10:03;6.20;;;1.98;;
37997;SDS011;24079;51.824;4.682;2023-04-03T15:12:40;4.55;;;1.80;;
37997;SDS011;24079;51.824;4.682;2023-04-03T15:15:07;3.78;;;1.90;;
37997;SDS011;24079;51.824;4.682;2023-04-03T15:17:33;3.28;;;1.42;;
37997;SDS011;24079;51.824;4.682;2023-04-03T15:20:01;5.18;;;1.33;;
37997;SDS011;24079;51.824;4.682;2023-04-03T15:22:28;5.75;;;1.50;;
37997;SDS011;24079;51.824;4.682;2023-04-03T15:24:54;8.23;;;2.28;;
37997;SDS011;24079;51.824;4.682;2023-04-03T15:27:20;16.10;;;5.82;;
37997;SDS011;24079;51.824;4.682;2023-04-03T15:29:46;2.95;;;1.65;;
37997;SDS011;24079;51.824;4.682;2023-04-03T15:32:12;4.93;;;1.50;;
37997;SDS011;24079;51.824;4.682;2023-04-03T15:34:39;6.68;;;1.70;;
37997;SDS011;24079;51.824;4.682;2023-04-03T15:37:05;6.20;;;1.55;;
37997;SDS011;24079;51.824;4.682;2023-04-03T15:39:31;3.35;;;1.60;;
37997;SDS011;24079;51.824;4.682;2023-04-03T15:41:57;3.88;;;1.55;;
37997;SDS011;24079;51.824;4.682;2023-04-03T15:44:32;4.43;;;1.60;;
37997;SDS011;24079;51.824;4.682;2023-04-03T15:46:59;5.05;;;1.67;;
37997;SDS011;24079;51.824;4.682;2023-04-03T15:49:27;3.70;;;1.48;;
37997;SDS011;24079;51.824;4.682;2023-04-03T15:51:53;7.47;;;2.00;;
37997;SDS011;24079;51.824;4.682;2023-04-03T15:54:19;2.67;;;1.33;;
37997;SDS011;24079;51.824;4.682;2023-04-03T15:56:45;4.53;;;1.80;;
37997;SDS011;24079;51.824;4.682;2023-04-03T15:59:11;3.03;;;1.60;;
37997;SDS011;24079;51.824;4.682;2023-04-03T16:01:37;2.80;;;1.40;;
37997;SDS011;24079;51.824;4.682;2023-04-03T16:04:05;4.28;;;1.42;;
37997;SDS011;24079;51.824;4.682;2023-04-03T16:06:32;4.80;;;1.40;;
37997;SDS011;24079;51.824;4.682;2023-04-03T16:08:58;4.88;;;1.70;;
37997;SDS011;24079;51.824;4.682;2023-04-03T16:11:25;1.88;;;1.30;;
37997;SDS011;24079;51.824;4.682;2023-04-03T16:13:53;3.90;;;1.50;;
37997;SDS011;24079;51.824;4.682;2023-04-03T16:16:19;2.70;;;1.30;;
37997;SDS011;24079;51.824;4.682;2023-04-03T16:18:45;3.92;;;1.83;;
37997;SDS011;24079;51.824;4.682;2023-04-03T16:21:15;5.35;;;1.60;;
37997;SDS011;24079;51.824;4.682;2023-04-03T16:23:41;3.17;;;1.60;;
37997;SDS011;24079;51.824;4.682;2023-04-03T16:26:08;6.30;;;2.05;;
37997;SDS011;24079;51.824;4.682;2023-04-03T16:28:33;8.07;;;1.60;;
37997;SDS011;24079;51.824;4.682;2023-04-03T16:30:59;5.88;;;1.83;;
37997;SDS011;24079;51.824;4.682;2023-04-03T16:33:26;3.53;;;1.35;;
37997;SDS011;24079;51.824;4.682;2023-04-03T16:35:52;4.25;;;1.60;;
37997;SDS011;24079;51.824;4.682;2023-04-03T16:38:18;5.97;;;1.80;;
37997;SDS011;24079;51.824;4.682;2023-04-03T16:40:44;4.43;;;1.45;;
37997;SDS011;24079;51.824;4.682;2023-04-03T16:43:10;2.72;;;1.42;;
37997;SDS011;24079;51.824;4.682;2023-04-03T16:45:36;4.50;;;1.52;;
37997;SDS011;24079;51.824;4.682;2023-04-03T16:48:02;7.85;;;1.90;;
37997;SDS011;24079;51.824;4.682;2023-04-03T16:50:28;4.95;;;1.95;;
37997;SDS011;24079;51.824;4.682;2023-04-03T16:52:54;3.97;;;1.75;;
37997;SDS011;24079;51.824;4.682;2023-04-03T16:55:19;4.28;;;1.75;;
37997;SDS011;24079;51.824;4.682;2023-04-03T16:57:45;4.93;;;1.58;;
37997;SDS011;24079;51.824;4.682;2023-04-03T17:00:12;6.07;;;1.80;;
37997;SDS011;24079;51.824;4.682;2023-04-03T17:02:38;4.85;;;1.83;;
37997;SDS011;24079;51.824;4.682;2023-04-03T17:05:04;7.90;;;1.73;;